Thunder radar more information blitzortung!


Radar de pluja more information rain snow radar


Visita la nostra xarxa de llocs de meteo:

Template documentation
and downloads

And another site



No particular awareness of the weather is required.    There are no Weather-warnings

Pagina Historial Weather Underground text

Diari Resum January 12, 2016 Unitats:  Mètric    Imperial   Tant
« Previous Dia
SegĂźent Dia »
Diari Setmana Mensual Anual Personalitzada
  Maxima: Minima: Media:
Temperatura: 13.9 °C 8.4 °C 13 °C
Punt de rosada: 1.0 °C -2.6 °C 0 °C
Humitat: 46 % 39 % 41 %
Wind Speed: 24.1 km/h 2.6 km/h 6.9 km/h
RĂ fegues de vent: 24.1 km/h - -
Vent:- - ENE
Pression baro: 1023.9 hPa 1016.8 hPa -
Precipitacions: 0.0 mm    
Historical Graphs
 
 
Dades de taula per January 12, 2016
Temps Temperatura Punt de rosada Pression baro Vent Wind Speed RĂ fegues de vent Humitat Rainfall Rate (Hourly)
11:32 11.6 °C 0.3 °C 1018.8 hPa SSE 13.0 km/h 13.0 km/h 46 % 0.0 mm
11:37 11.6 °C 0.3 °C 1018.8 hPa West 16.7 km/h 16.7 km/h 46 % 0.0 mm
11:47 11.9 °C 0.3 °C 1016.8 hPa WSW 13.0 km/h 13.0 km/h 45 % 0.0 mm
11:52 12.1 °C 0.5 °C 1016.8 hPa WNW 9.3 km/h 9.3 km/h 45 % 0.0 mm
11:57 12.2 °C 0.6 °C 1017.8 hPa NNW 7.4 km/h 7.4 km/h 45 % 0.0 mm
12:02 12.5 °C 0.9 °C 1017.8 hPa ENE 5.6 km/h 5.6 km/h 45 % 0.0 mm
12:07 12.6 °C 0.9 °C 1017.8 hPa West 7.4 km/h 7.4 km/h 45 % 0.0 mm
12:12 12.5 °C 0.9 °C 1017.8 hPa NNW 9.3 km/h 9.3 km/h 45 % 0.0 mm
12:17 12.6 °C 0.9 °C 1017.8 hPa WNW 11.1 km/h 11.1 km/h 45 % 0.0 mm
12:22 12.6 °C 0.9 °C 1017.8 hPa NW 7.4 km/h 7.4 km/h 45 % 0.0 mm
12:37 13.0 °C 1.0 °C 1017.8 hPa SW 11.1 km/h 11.1 km/h 44 % 0.0 mm
12:42 12.9 °C 0.3 °C 1017.8 hPa NNW 9.3 km/h 9.3 km/h 42 % 0.0 mm
12:47 13.3 °C 0.9 °C 1017.8 hPa SW 4.7 km/h 4.7 km/h 43 % 0.0 mm
13:02 13.2 °C 0.2 °C 1017.8 hPa West 16.7 km/h 16.7 km/h 41 % 0.0 mm
13:12 13.4 °C 0.4 °C 1016.8 hPa SW 7.4 km/h 7.4 km/h 41 % 0.0 mm
13:17 13.5 °C 0.5 °C 1016.8 hPa West 8.7 km/h 8.7 km/h 41 % 0.0 mm
13:22 13.7 °C 0.7 °C 1016.8 hPa SW 11.1 km/h 11.1 km/h 41 % 0.0 mm
13:27 13.9 °C 0.8 °C 1017.8 hPa WNW 5.6 km/h 5.6 km/h 41 % 0.0 mm
13:32 13.8 °C 0.4 °C 1017.8 hPa SW 13.0 km/h 13.0 km/h 40 % 0.0 mm
13:42 13.4 °C 0.1 °C 1017.8 hPa WNW 9.3 km/h 9.3 km/h 40 % 0.0 mm
13:47 13.6 °C -0.1 °C 1017.8 hPa SW 18.5 km/h 18.5 km/h 39 % 0.0 mm
13:52 13.8 °C 0.4 °C 1017.8 hPa NW 9.3 km/h 9.3 km/h 40 % 0.0 mm
13:57 13.8 °C 0.4 °C 1017.8 hPa SW 16.4 km/h 16.4 km/h 40 % 0.0 mm
14:02 13.5 °C 0.2 °C 1017.8 hPa SW 22.2 km/h 22.2 km/h 40 % 0.0 mm
14:07 13.5 °C -0.2 °C 1017.8 hPa East 24.1 km/h 24.1 km/h 39 % 0.0 mm
14:12 13.5 °C 0.2 °C 1016.8 hPa NNE 14.8 km/h 14.8 km/h 40 % 0.0 mm
14:17 13.5 °C 0.2 °C 1016.8 hPa WSW 22.2 km/h 22.2 km/h 40 % 0.0 mm
14:22 13.5 °C 0.2 °C 1016.8 hPa WSW 13.0 km/h 13.0 km/h 40 % 0.0 mm
14:27 13.5 °C 0.2 °C 1017.8 hPa North 5.6 km/h 11.1 km/h 40 % 0.0 mm
14:32 13.5 °C 0.2 °C 1017.8 hPa North 5.6 km/h 11.1 km/h 40 % 0.0 mm
14:37 13.5 °C 0.2 °C 1017.8 hPa North 5.6 km/h 11.1 km/h 40 % 0.0 mm
14:42 13.5 °C 0.2 °C 1017.8 hPa North 5.6 km/h 11.1 km/h 40 % 0.0 mm
14:47 13.5 °C 0.2 °C 1017.8 hPa North 5.6 km/h 11.1 km/h 40 % 0.0 mm
14:52 13.5 °C 0.2 °C 1017.8 hPa North 5.6 km/h 11.1 km/h 40 % 0.0 mm
14:57 13.5 °C 0.2 °C 1017.8 hPa North 5.6 km/h 11.1 km/h 40 % 0.0 mm
15:02 13.5 °C 0.2 °C 1017.8 hPa North 5.6 km/h 11.1 km/h 40 % 0.0 mm
15:07 13.5 °C 0.2 °C 1017.8 hPa North 5.6 km/h 11.1 km/h 40 % 0.0 mm
15:12 13.5 °C 0.2 °C 1017.8 hPa North 5.6 km/h 11.1 km/h 40 % 0.0 mm
15:17 13.5 °C 0.2 °C 1017.8 hPa North 5.6 km/h 11.1 km/h 40 % 0.0 mm
15:22 13.5 °C 0.2 °C 1017.8 hPa North 5.6 km/h 11.1 km/h 40 % 0.0 mm
15:32 13.5 °C 0.2 °C 1017.8 hPa North 5.6 km/h 11.1 km/h 40 % 0.0 mm
15:37 13.5 °C 0.2 °C 1017.8 hPa North 5.6 km/h 11.1 km/h 40 % 0.0 mm
15:42 13.5 °C 0.2 °C 1017.8 hPa North 5.6 km/h 11.1 km/h 40 % 0.0 mm
15:47 13.5 °C 0.2 °C 1017.8 hPa North 5.6 km/h 11.1 km/h 40 % 0.0 mm
15:52 13.5 °C 0.2 °C 1017.8 hPa North 5.6 km/h 11.1 km/h 40 % 0.0 mm
15:57 13.5 °C 0.2 °C 1017.8 hPa North 5.6 km/h 11.1 km/h 40 % 0.0 mm
16:02 13.5 °C 0.2 °C 1017.8 hPa North 5.6 km/h 11.1 km/h 40 % 0.0 mm
16:07 13.5 °C 0.2 °C 1017.8 hPa North 5.6 km/h 11.1 km/h 40 % 0.0 mm
16:12 13.5 °C 0.2 °C 1017.8 hPa North 5.6 km/h 11.1 km/h 40 % 0.0 mm
16:17 13.5 °C 0.2 °C 1017.8 hPa North 5.6 km/h 11.1 km/h 40 % 0.0 mm
16:27 13.5 °C 0.2 °C 1017.8 hPa North 5.6 km/h 11.1 km/h 40 % 0.0 mm
16:32 13.5 °C 0.2 °C 1017.8 hPa North 5.6 km/h 11.1 km/h 40 % 0.0 mm
16:37 13.5 °C 0.2 °C 1017.8 hPa North 5.6 km/h 11.1 km/h 40 % 0.0 mm
16:47 13.5 °C 0.2 °C 1017.8 hPa North 5.6 km/h 11.1 km/h 40 % 0.0 mm
16:57 13.5 °C 0.2 °C 1017.8 hPa North 5.6 km/h 11.1 km/h 40 % 0.0 mm
17:02 13.5 °C 0.2 °C 1017.8 hPa North 5.6 km/h 11.1 km/h 40 % 0.0 mm
17:07 13.5 °C 0.2 °C 1017.8 hPa North 5.6 km/h 11.1 km/h 40 % 0.0 mm
17:12 13.5 °C 0.2 °C 1017.8 hPa North 5.6 km/h 11.1 km/h 40 % 0.0 mm
17:17 13.5 °C 0.2 °C 1017.8 hPa North 5.6 km/h 11.1 km/h 40 % 0.0 mm
17:22 13.5 °C 0.2 °C 1017.8 hPa North 5.6 km/h 11.1 km/h 40 % 0.0 mm
17:27 13.5 °C 0.2 °C 1017.8 hPa North 5.6 km/h 11.1 km/h 40 % 0.0 mm
17:32 13.5 °C 0.2 °C 1017.8 hPa North 5.6 km/h 11.1 km/h 40 % 0.0 mm
17:37 13.5 °C 0.2 °C 1017.8 hPa North 5.6 km/h 11.1 km/h 40 % 0.0 mm
17:42 13.5 °C 0.2 °C 1017.8 hPa North 5.6 km/h 11.1 km/h 40 % 0.0 mm
17:47 13.5 °C 0.2 °C 1017.8 hPa North 5.6 km/h 11.1 km/h 40 % 0.0 mm
17:52 13.5 °C 0.2 °C 1017.8 hPa North 5.6 km/h 11.1 km/h 40 % 0.0 mm
17:57 13.5 °C 0.2 °C 1017.8 hPa North 5.6 km/h 11.1 km/h 40 % 0.0 mm
18:02 13.5 °C 0.2 °C 1017.8 hPa North 5.6 km/h 11.1 km/h 40 % 0.0 mm
18:07 13.5 °C 0.2 °C 1017.8 hPa North 5.6 km/h 11.1 km/h 40 % 0.0 mm
18:12 13.5 °C 0.2 °C 1017.8 hPa North 5.6 km/h 11.1 km/h 40 % 0.0 mm
18:17 13.5 °C 0.2 °C 1017.8 hPa North 5.6 km/h 11.1 km/h 40 % 0.0 mm
18:22 13.5 °C 0.2 °C 1017.8 hPa North 5.6 km/h 11.1 km/h 40 % 0.0 mm
18:27 13.5 °C 0.2 °C 1017.8 hPa North 5.6 km/h 11.1 km/h 40 % 0.0 mm
18:32 13.5 °C 0.2 °C 1017.8 hPa North 5.6 km/h 11.1 km/h 40 % 0.0 mm
18:37 13.5 °C 0.2 °C 1017.8 hPa North 5.6 km/h 11.1 km/h 40 % 0.0 mm
18:42 13.5 °C 0.2 °C 1017.8 hPa North 5.6 km/h 11.1 km/h 40 % 0.0 mm
18:47 13.5 °C 0.2 °C 1017.8 hPa North 5.6 km/h 11.1 km/h 40 % 0.0 mm
18:52 13.5 °C 0.2 °C 1017.8 hPa North 5.6 km/h 11.1 km/h 40 % 0.0 mm
18:57 13.5 °C 0.2 °C 1017.8 hPa North 5.6 km/h 11.1 km/h 40 % 0.0 mm
19:02 13.5 °C 0.2 °C 1017.8 hPa North 5.6 km/h 11.1 km/h 40 % 0.0 mm
19:07 13.5 °C 0.2 °C 1017.8 hPa North 5.6 km/h 11.1 km/h 40 % 0.0 mm
19:12 13.5 °C 0.2 °C 1017.8 hPa North 5.6 km/h 11.1 km/h 40 % 0.0 mm
19:17 13.5 °C 0.2 °C 1017.8 hPa North 5.6 km/h 11.1 km/h 40 % 0.0 mm
19:22 13.5 °C 0.2 °C 1017.8 hPa North 5.6 km/h 11.1 km/h 40 % 0.0 mm
19:27 13.5 °C 0.2 °C 1017.8 hPa North 5.6 km/h 11.1 km/h 40 % 0.0 mm
19:32 13.5 °C 0.2 °C 1017.8 hPa North 5.6 km/h 11.1 km/h 40 % 0.0 mm
19:37 13.5 °C 0.2 °C 1017.8 hPa North 5.6 km/h 11.1 km/h 40 % 0.0 mm
19:42 13.5 °C 0.2 °C 1017.8 hPa North 5.6 km/h 11.1 km/h 40 % 0.0 mm
19:47 13.5 °C 0.2 °C 1017.8 hPa North 5.6 km/h 11.1 km/h 40 % 0.0 mm
19:52 13.5 °C 0.2 °C 1017.8 hPa North 5.6 km/h 11.1 km/h 40 % 0.0 mm
19:57 13.5 °C 0.2 °C 1017.8 hPa North 5.6 km/h 11.1 km/h 40 % 0.0 mm
20:02 13.5 °C 0.2 °C 1017.8 hPa North 5.6 km/h 11.1 km/h 40 % 0.0 mm
20:07 13.5 °C 0.2 °C 1017.8 hPa North 5.6 km/h 11.1 km/h 40 % 0.0 mm
20:12 13.5 °C 0.2 °C 1017.8 hPa North 5.6 km/h 11.1 km/h 40 % 0.0 mm
20:17 13.5 °C 0.2 °C 1017.8 hPa North 5.6 km/h 11.1 km/h 40 % 0.0 mm
20:22 13.5 °C 0.2 °C 1017.8 hPa North 5.6 km/h 11.1 km/h 40 % 0.0 mm
20:27 13.5 °C 0.2 °C 1017.8 hPa North 5.6 km/h 11.1 km/h 40 % 0.0 mm
20:32 13.5 °C 0.2 °C 1017.8 hPa North 5.6 km/h 11.1 km/h 40 % 0.0 mm
20:37 13.5 °C 0.2 °C 1017.8 hPa North 5.6 km/h 11.1 km/h 40 % 0.0 mm
20:42 13.5 °C 0.2 °C 1017.8 hPa North 5.6 km/h 11.1 km/h 40 % 0.0 mm
20:47 13.5 °C 0.2 °C 1017.8 hPa North 5.6 km/h 11.1 km/h 40 % 0.0 mm
20:52 13.5 °C 0.2 °C 1017.8 hPa North 5.6 km/h 11.1 km/h 40 % 0.0 mm
20:57 13.5 °C 0.2 °C 1017.8 hPa North 5.6 km/h 11.1 km/h 40 % 0.0 mm
21:02 13.5 °C 0.2 °C 1017.8 hPa North 5.6 km/h 11.1 km/h 40 % 0.0 mm
21:12 13.5 °C 0.2 °C 1017.8 hPa North 5.6 km/h 11.1 km/h 40 % 0.0 mm
21:17 13.5 °C 0.2 °C 1017.8 hPa North 5.6 km/h 11.1 km/h 40 % 0.0 mm
21:22 13.5 °C 0.2 °C 1017.8 hPa North 5.6 km/h 11.1 km/h 40 % 0.0 mm
21:32 13.5 °C 0.2 °C 1017.8 hPa North 5.6 km/h 11.1 km/h 40 % 0.0 mm
21:37 13.5 °C 0.2 °C 1017.8 hPa North 5.6 km/h 11.1 km/h 40 % 0.0 mm
21:42 13.5 °C 0.2 °C 1017.8 hPa North 5.6 km/h 11.1 km/h 40 % 0.0 mm
21:47 13.5 °C 0.2 °C 1017.8 hPa North 5.6 km/h 11.1 km/h 40 % 0.0 mm
21:52 13.5 °C 0.2 °C 1017.8 hPa North 5.6 km/h 11.1 km/h 40 % 0.0 mm
21:57 13.5 °C 0.2 °C 1017.8 hPa North 5.6 km/h 11.1 km/h 40 % 0.0 mm
22:02 13.5 °C 0.2 °C 1017.8 hPa North 5.6 km/h 11.1 km/h 40 % 0.0 mm
22:07 13.5 °C 0.2 °C 1017.8 hPa North 5.6 km/h 11.1 km/h 40 % 0.0 mm
22:12 13.5 °C 0.2 °C 1017.8 hPa North 5.6 km/h 11.1 km/h 40 % 0.0 mm
22:17 9.1 °C -2.2 °C 1021.9 hPa North 5.6 km/h 5.6 km/h 45 % 0.0 mm
22:22 9.1 °C -2.2 °C 1021.9 hPa North 5.6 km/h 5.6 km/h 45 % 0.0 mm
22:27 9.1 °C -2.2 °C 1021.9 hPa North 5.6 km/h 5.6 km/h 45 % 0.0 mm
22:32 9.1 °C -2.2 °C 1021.9 hPa North 5.6 km/h 5.6 km/h 45 % 0.0 mm
22:37 9.1 °C -2.2 °C 1021.9 hPa North 5.6 km/h 5.6 km/h 45 % 0.0 mm
22:47 8.9 °C -2.4 °C 1022.9 hPa NE 2.6 km/h 4.2 km/h 45 % 0.0 mm
22:53 8.9 °C -2.1 °C 1022.9 hPa NE 2.6 km/h 4.2 km/h 46 % 0.0 mm
22:58 8.8 °C -2.2 °C 1022.9 hPa SSE 4.2 km/h 4.2 km/h 46 % 0.0 mm
23:03 8.6 °C -2.4 °C 1022.9 hPa SSE 4.2 km/h 4.2 km/h 46 % 0.0 mm
23:08 8.5 °C -2.5 °C 1022.9 hPa SSE 4.2 km/h 4.2 km/h 46 % 0.0 mm
23:13 8.4 °C -2.6 °C 1023.9 hPa SW 5.6 km/h 5.6 km/h 46 % 0.0 mm
23:18 8.4 °C -2.6 °C 1023.9 hPa SW 5.6 km/h 5.6 km/h 46 % 0.0 mm
Meteo Sesrovires
Elogis d' Weather Underground - 3.25 mb

Guio original per  Jim McMurry - jmcmurry@mwt.net Adaptat per a la plantilla per  Wim van der Kuil - Leuven-Template.eu

Trobareu la nostra informacio del temps tambe a:

Weather Underground

AWEKAS